NKS100 KFLL-TNCM
Flight info
| Callsign | NKS100 |
|---|---|
| Flight time | N/A |
| Altitude | 35000 |
| Route | SNAPR2 SUMAC Y421 HAGIT Y290 SLUGO ULUBA1 |
| Aircraft | A21N/M-SDE2E3FGHIRWXY/LB1 |
Departure
| Time | 2026-05-07 17:46 |
|---|---|
| Airport | Fort Lauderdale Hollywood International Airport (KFLL) |
Arrival
| Time | N/A |
|---|---|
| Airport | Princess Juliana International Airport (TNCM) |
| Time | Latitude | Longitude | Altitude | Speed | Heading |
|---|---|---|---|---|---|
| 2026-05-07 17:30 | 26.06883 | -80.14515 | 20 ft | 0 kts | 4° |
| 2026-05-07 17:33 | 26.06876 | -80.14516 | 20 ft | 2 kts | 2° |
| 2026-05-07 17:33 | 26.06856 | -80.14516 | 21 ft | 3 kts | 353° |
| 2026-05-07 17:33 | 26.06837 | -80.14512 | 21 ft | 3 kts | 337° |
| 2026-05-07 17:34 | 26.06821 | -80.14501 | 21 ft | 3 kts | 301° |
| 2026-05-07 17:34 | 26.06816 | -80.14488 | 23 ft | 2 kts | 252° |
| 2026-05-07 17:34 | 26.06818 | -80.14481 | 23 ft | 0 kts | 251° |
| 2026-05-07 17:40 | 26.06816 | -80.14489 | 20 ft | 4 kts | 251° |
| 2026-05-07 17:40 | 26.06796 | -80.14546 | 21 ft | 10 kts | 244° |
| 2026-05-07 17:40 | 26.06767 | -80.14637 | 19 ft | 15 kts | 265° |
| 2026-05-07 17:40 | 26.06766 | -80.14764 | 22 ft | 17 kts | 270° |
| 2026-05-07 17:41 | 26.06767 | -80.14894 | 25 ft | 17 kts | 271° |
| 2026-05-07 17:41 | 26.06768 | -80.15033 | 25 ft | 19 kts | 270° |
| 2026-05-07 17:41 | 26.06769 | -80.15181 | 27 ft | 19 kts | 272° |
| 2026-05-07 17:41 | 26.06770 | -80.15322 | 30 ft | 18 kts | 270° |
| 2026-05-07 17:42 | 26.06772 | -80.15456 | 29 ft | 18 kts | 271° |
| 2026-05-07 17:42 | 26.06719 | -80.15541 | 27 ft | 11 kts | 218° |
| 2026-05-07 17:42 | 26.06699 | -80.15617 | 27 ft | 11 kts | 269° |
| 2026-05-07 17:42 | 26.06698 | -80.15713 | 30 ft | 15 kts | 269° |
| 2026-05-07 17:43 | 26.06682 | -80.15814 | 27 ft | 11 kts | 224° |
| 2026-05-07 17:43 | 26.06619 | -80.15820 | 26 ft | 10 kts | 171° |
| 2026-05-07 17:43 | 26.06587 | -80.15777 | 27 ft | 5 kts | 88° |
| 2026-05-07 17:43 | 26.06587 | -80.15773 | 25 ft | 0 kts | 88° |
| 2026-05-07 17:45 | 26.06587 | -80.15749 | 26 ft | 6 kts | 89° |
| 2026-05-07 17:45 | 26.06588 | -80.15688 | 26 ft | 24 kts | 89° |
| 2026-05-07 17:45 | 26.06584 | -80.15297 | 26 ft | 76 kts | 91° |
| 2026-05-07 17:45 | 26.06580 | -80.14502 | 22 ft | 131 kts | 90° |
| 2026-05-07 17:46 | 26.06579 | -80.13320 | 130 ft | 162 kts | 91° |
| 2026-05-07 17:46 | 26.06590 | -80.12095 | 697 ft | 150 kts | 89° |
| 2026-05-07 17:46 | 26.06608 | -80.10956 | 1267 ft | 151 kts | 89° |
| 2026-05-07 17:46 | 26.06707 | -80.09790 | 1725 ft | 154 kts | 83° |
| 2026-05-07 17:47 | 26.06941 | -80.08634 | 2139 ft | 161 kts | 74° |
| 2026-05-07 17:47 | 26.07287 | -80.07396 | 2391 ft | 175 kts | 71° |
| 2026-05-07 17:47 | 26.07679 | -80.06041 | 2617 ft | 197 kts | 74° |
| 2026-05-07 17:47 | 26.07799 | -80.04444 | 2765 ft | 220 kts | 103° |
| 2026-05-07 17:48 | 26.07398 | -80.02721 | 3074 ft | 239 kts | 105° |
| 2026-05-07 17:48 | 26.07046 | -80.00850 | 3431 ft | 257 kts | 98° |
| 2026-05-07 17:48 | 26.06860 | -79.98864 | 3919 ft | 267 kts | 95° |
| 2026-05-07 17:48 | 26.06758 | -79.96793 | 4539 ft | 273 kts | 93° |
| 2026-05-07 17:49 | 26.06695 | -79.94673 | 5195 ft | 276 kts | 92° |
| 2026-05-07 17:49 | 26.06653 | -79.92528 | 5872 ft | 278 kts | 91° |
| 2026-05-07 17:49 | 26.06621 | -79.90390 | 6523 ft | 280 kts | 91° |
| 2026-05-07 17:49 | 26.06594 | -79.88222 | 7137 ft | 282 kts | 91° |
| 2026-05-07 17:50 | 26.06569 | -79.86035 | 7754 ft | 283 kts | 91° |
| 2026-05-07 17:50 | 26.06535 | -79.83839 | 8386 ft | 285 kts | 94° |
| 2026-05-07 17:50 | 26.06318 | -79.81671 | 9014 ft | 286 kts | 99° |
| 2026-05-07 17:50 | 26.05993 | -79.79482 | 9630 ft | 289 kts | 100° |
| 2026-05-07 17:51 | 26.05644 | -79.77271 | 10178 ft | 293 kts | 100° |
| 2026-05-07 17:51 | 26.05283 | -79.74988 | 10432 ft | 308 kts | 100° |
| 2026-05-07 17:51 | 26.04906 | -79.72596 | 10678 ft | 322 kts | 100° |
| 2026-05-07 17:51 | 26.04515 | -79.70110 | 10889 ft | 335 kts | 100° |
| 2026-05-07 17:52 | 26.04109 | -79.67520 | 11092 ft | 348 kts | 100° |
| 2026-05-07 17:52 | 26.03657 | -79.64823 | 11272 ft | 361 kts | 102° |
| 2026-05-07 17:52 | 26.03065 | -79.62107 | 11468 ft | 371 kts | 104° |
| 2026-05-07 17:52 | 26.02408 | -79.59298 | 11632 ft | 382 kts | 104° |
| 2026-05-07 17:53 | 26.01738 | -79.56461 | 11771 ft | 391 kts | 104° |
| 2026-05-07 17:53 | 26.01044 | -79.53521 | 11953 ft | 398 kts | 104° |
| 2026-05-07 17:53 | 26.00346 | -79.50558 | 12212 ft | 401 kts | 104° |
| 2026-05-07 17:53 | 25.99637 | -79.47547 | 12413 ft | 407 kts | 104° |
| 2026-05-07 17:54 | 25.98917 | -79.44489 | 12514 ft | 413 kts | 104° |
| 2026-05-07 17:54 | 25.98188 | -79.41394 | 12691 ft | 416 kts | 104° |
| 2026-05-07 17:54 | 25.97406 | -79.38346 | 12911 ft | 418 kts | 108° |
| 2026-05-07 17:54 | 25.96442 | -79.35374 | 13112 ft | 421 kts | 110° |
| 2026-05-07 17:55 | 25.95374 | -79.32285 | 13310 ft | 422 kts | 111° |
| 2026-05-07 17:55 | 25.94314 | -79.29252 | 13533 ft | 424 kts | 111° |
| 2026-05-07 17:55 | 25.93254 | -79.26222 | 13775 ft | 425 kts | 111° |
| 2026-05-07 17:55 | 25.92186 | -79.23164 | 13928 ft | 428 kts | 111° |
| 2026-05-07 17:56 | 25.91107 | -79.20074 | 14086 ft | 430 kts | 111° |
| 2026-05-07 17:56 | 25.90032 | -79.16993 | 14265 ft | 431 kts | 111° |
| 2026-05-07 17:56 | 25.88954 | -79.13906 | 14457 ft | 432 kts | 111° |
| 2026-05-07 17:56 | 25.87875 | -79.10818 | 14633 ft | 433 kts | 111° |
| 2026-05-07 17:57 | 25.86800 | -79.07743 | 14790 ft | 435 kts | 111° |
| 2026-05-07 17:57 | 25.86078 | -79.05679 | 14900 ft | 436 kts | 111° |
| 2026-05-07 17:57 | 25.84611 | -79.01488 | 15126 ft | 437 kts | 111° |
| 2026-05-07 17:57 | 25.83514 | -78.98359 | 15264 ft | 438 kts | 111° |
| 2026-05-07 17:58 | 25.82411 | -78.95213 | 15436 ft | 439 kts | 111° |
| 2026-05-07 17:58 | 25.81304 | -78.92059 | 15572 ft | 441 kts | 111° |
| 2026-05-07 17:58 | 25.80199 | -78.88912 | 15714 ft | 442 kts | 111° |
| 2026-05-07 17:58 | 25.79082 | -78.85734 | 15832 ft | 443 kts | 111° |
| 2026-05-07 17:59 | 25.77969 | -78.82571 | 15967 ft | 444 kts | 111° |
| 2026-05-07 17:59 | 25.76850 | -78.79392 | 16091 ft | 446 kts | 111° |
| 2026-05-07 17:59 | 25.75738 | -78.76237 | 16216 ft | 447 kts | 111° |
| 2026-05-07 17:59 | 25.74571 | -78.73052 | 16331 ft | 448 kts | 114° |
| 2026-05-07 18:00 | 25.73090 | -78.70006 | 16437 ft | 450 kts | 121° |
| 2026-05-07 18:00 | 25.71385 | -78.67120 | 16533 ft | 451 kts | 123° |
| 2026-05-07 18:00 | 25.69625 | -78.64255 | 16632 ft | 453 kts | 124° |
| 2026-05-07 18:00 | 25.67855 | -78.61388 | 16728 ft | 453 kts | 124° |
| 2026-05-07 18:01 | 25.66083 | -78.58514 | 16826 ft | 454 kts | 124° |
| 2026-05-07 18:01 | 25.64298 | -78.55615 | 16914 ft | 455 kts | 124° |
| 2026-05-07 18:01 | 25.62538 | -78.52755 | 16997 ft | 456 kts | 124° |
| 2026-05-07 18:01 | 25.60759 | -78.49864 | 17090 ft | 457 kts | 124° |
| 2026-05-07 18:02 | 25.57548 | -78.43832 | 17205 ft | 457 kts | 111° |
| 2026-05-07 18:02 | 25.56540 | -78.40498 | 17291 ft | 457 kts | 105° |
| 2026-05-07 18:02 | 25.55671 | -78.37126 | 17363 ft | 457 kts | 104° |
| 2026-05-07 18:03 | 25.54819 | -78.33742 | 17430 ft | 458 kts | 104° |
| 2026-05-07 18:03 | 25.53964 | -78.30352 | 17484 ft | 458 kts | 104° |
| 2026-05-07 18:03 | 25.53102 | -78.26958 | 17546 ft | 459 kts | 104° |
| 2026-05-07 18:03 | 25.52262 | -78.23666 | 17603 ft | 460 kts | 104° |
| 2026-05-07 18:04 | 25.51382 | -78.20228 | 17662 ft | 460 kts | 105° |
| 2026-05-07 18:04 | 25.50512 | -78.16833 | 17718 ft | 461 kts | 105° |
| 2026-05-07 18:04 | 25.49641 | -78.13446 | 17778 ft | 461 kts | 105° |
| 2026-05-07 18:04 | 25.48761 | -78.10025 | 17828 ft | 462 kts | 105° |
| 2026-05-07 18:05 | 25.47884 | -78.06621 | 17883 ft | 462 kts | 105° |
| 2026-05-07 18:05 | 25.47019 | -78.03268 | 17935 ft | 463 kts | 105° |
| 2026-05-07 18:05 | 25.46122 | -77.99790 | 17987 ft | 463 kts | 105° |
| 2026-05-07 18:05 | 25.45235 | -77.96358 | 18033 ft | 463 kts | 104° |
| 2026-05-07 18:06 | 25.44354 | -77.92958 | 18168 ft | 462 kts | 104° |
| 2026-05-07 18:06 | 25.43505 | -77.89678 | 18193 ft | 462 kts | 104° |
| 2026-05-07 18:06 | 25.42601 | -77.86190 | 18223 ft | 463 kts | 104° |
| 2026-05-07 18:06 | 25.41723 | -77.82808 | 18259 ft | 464 kts | 104° |
| 2026-05-07 18:07 | 25.40829 | -77.79367 | 18308 ft | 464 kts | 104° |
| 2026-05-07 18:07 | 25.39940 | -77.75949 | 18338 ft | 464 kts | 104° |
| 2026-05-07 18:07 | 25.39046 | -77.72513 | 18364 ft | 465 kts | 104° |
| 2026-05-07 18:07 | 25.38186 | -77.69215 | 18405 ft | 465 kts | 104° |
| 2026-05-07 18:08 | 25.37268 | -77.65696 | 18435 ft | 465 kts | 105° |
| 2026-05-07 18:08 | 25.36382 | -77.62304 | 18464 ft | 466 kts | 105° |
| 2026-05-07 18:08 | 25.35487 | -77.58880 | 18501 ft | 466 kts | 104° |
| 2026-05-07 18:08 | 25.34591 | -77.55460 | 18530 ft | 466 kts | 104° |
| 2026-05-07 18:09 | 25.33690 | -77.52019 | 18558 ft | 466 kts | 104° |
| 2026-05-07 18:09 | 25.32790 | -77.48589 | 18575 ft | 467 kts | 105° |
| 2026-05-07 18:09 | 25.31886 | -77.45145 | 18593 ft | 467 kts | 105° |
| 2026-05-07 18:09 | 25.30987 | -77.41723 | 18636 ft | 467 kts | 105° |
| 2026-05-07 18:10 | 25.30069 | -77.38274 | 18660 ft | 467 kts | 106° |
| 2026-05-07 18:10 | 25.28984 | -77.35092 | 18688 ft | 469 kts | 114° |
| 2026-05-07 18:10 | 25.27412 | -77.31812 | 18714 ft | 470 kts | 119° |
| 2026-05-07 18:10 | 25.25738 | -77.28767 | 18736 ft | 471 kts | 121° |
| 2026-05-07 18:11 | 25.23940 | -77.25701 | 18763 ft | 471 kts | 122° |
| 2026-05-07 18:11 | 25.22740 | -77.23700 | 18790 ft | 471 kts | 123° |
| 2026-05-07 18:11 | 25.20315 | -77.19672 | 18805 ft | 472 kts | 122° |
| 2026-05-07 18:11 | 25.18521 | -77.16670 | 18813 ft | 472 kts | 122° |
| 2026-05-07 18:12 | 25.16723 | -77.13636 | 18840 ft | 472 kts | 122° |
| 2026-05-07 18:12 | 25.14973 | -77.10663 | 18858 ft | 472 kts | 122° |
| 2026-05-07 18:12 | 25.13191 | -77.07622 | 18887 ft | 473 kts | 122° |
| 2026-05-07 18:12 | 25.11412 | -77.04582 | 18903 ft | 473 kts | 122° |
| 2026-05-07 18:13 | 25.09634 | -77.01541 | 18922 ft | 473 kts | 122° |
| 2026-05-07 18:13 | 25.07850 | -76.98492 | 18941 ft | 473 kts | 122° |
| 2026-05-07 18:13 | 25.06105 | -76.95513 | 18959 ft | 473 kts | 122° |
| 2026-05-07 18:13 | 25.04305 | -76.92443 | 19013 ft | 472 kts | 122° |
| 2026-05-07 18:14 | 25.02507 | -76.89379 | 19028 ft | 473 kts | 122° |
| 2026-05-07 18:14 | 25.00751 | -76.86389 | 19038 ft | 473 kts | 122° |
| 2026-05-07 18:14 | 24.98969 | -76.83357 | 19037 ft | 474 kts | 122° |
| 2026-05-07 18:14 | 24.97177 | -76.80309 | 19049 ft | 474 kts | 122° |
| 2026-05-07 18:15 | 24.95388 | -76.77269 | 19063 ft | 474 kts | 122° |
| 2026-05-07 18:15 | 24.93605 | -76.74240 | 19074 ft | 474 kts | 122° |
| 2026-05-07 18:15 | 24.91874 | -76.71303 | 19087 ft | 474 kts | 122° |
| 2026-05-07 18:15 | 24.90079 | -76.68258 | 19100 ft | 474 kts | 122° |
| 2026-05-07 18:16 | 24.88281 | -76.65210 | 19125 ft | 474 kts | 122° |
| 2026-05-07 18:16 | 24.86486 | -76.62169 | 19136 ft | 474 kts | 122° |
| 2026-05-07 18:16 | 24.84682 | -76.59114 | 19142 ft | 474 kts | 122° |
| 2026-05-07 18:16 | 24.82888 | -76.56080 | 19153 ft | 474 kts | 122° |
| 2026-05-07 18:17 | 24.81087 | -76.53035 | 19169 ft | 475 kts | 122° |
| 2026-05-07 18:17 | 24.79294 | -76.50007 | 19179 ft | 475 kts | 122° |
| 2026-05-07 18:17 | 24.77505 | -76.46987 | 19177 ft | 475 kts | 122° |
| 2026-05-07 18:17 | 24.75703 | -76.43947 | 19191 ft | 475 kts | 122° |
| 2026-05-07 18:18 | 24.73904 | -76.40912 | 19206 ft | 475 kts | 122° |
| 2026-05-07 18:18 | 24.72104 | -76.37880 | 19218 ft | 475 kts | 122° |
| 2026-05-07 18:18 | 24.70392 | -76.34995 | 19228 ft | 475 kts | 122° |
| 2026-05-07 18:18 | 24.68582 | -76.31949 | 19272 ft | 474 kts | 121° |
| 2026-05-07 18:19 | 24.66747 | -76.28861 | 19322 ft | 473 kts | 121° |
| 2026-05-07 18:19 | 24.64974 | -76.25882 | 19682 ft | 464 kts | 122° |
| 2026-05-07 18:19 | 24.63271 | -76.23024 | 20131 ft | 454 kts | 122° |
| 2026-05-07 18:19 | 24.61625 | -76.20266 | 20551 ft | 446 kts | 122° |
| 2026-05-07 18:20 | 24.59890 | -76.17359 | 20924 ft | 443 kts | 122° |
| 2026-05-07 18:20 | 24.58203 | -76.14533 | 21239 ft | 443 kts | 122° |
| 2026-05-07 18:20 | 24.56537 | -76.11683 | 21558 ft | 443 kts | 120° |
| 2026-05-07 18:20 | 24.54934 | -76.08853 | 21874 ft | 443 kts | 120° |
| 2026-05-07 18:21 | 24.53327 | -76.05970 | 22195 ft | 444 kts | 120° |
| 2026-05-07 18:21 | 24.51758 | -76.03139 | 22522 ft | 446 kts | 120° |
| 2026-05-07 18:21 | 24.51180 | -76.02097 | 22632 ft | 446 kts | 120° |